Terminal Aerodrome Forecast
Issued by NWS

Home | Current Version | Previous Version | Text Only | Print | Product List | Glossary On
Versions: 1 2 3 4 5 6 7 8 9 10 11 12 13 14
000
FTUS43 KIND 111700
TAFBMG
TAF
KBMG 111720Z 1118/1218 13006KT P6SM SCT250
     FM120000 19002KT P6SM SCT250
     FM120800 18004KT P6SM BKN100
     FM121400 21007KT P6SM BKN080=

USA.gov is the U.S. government's official web portal to all federal, state and local government web resources and services.